AEE535 LGTS-LSZH
Flight info
| Callsign | AEE535 |
|---|---|
| Flight time | N/A |
| Altitude | 34000 |
| Route | FSK UL608 DISOR DCT LONTA UL608 DOLEV DCT GORPA DCT ERKIR DCT KPT L856 NEGRA |
| Aircraft | A21N/M-SDE2E3FGHIRWXY/LB1 |
Departure
| Time | 2026-05-04 12:56 |
|---|---|
| Airport | Thessaloniki Macedonia International Airport (LGTS) |
Arrival
| Time | N/A |
|---|---|
| Airport | Zürich Airport (LSZH) |
| Time | Latitude | Longitude | Altitude | Speed | Heading |
|---|---|---|---|---|---|
| 2026-05-04 12:09 | 40.52376 | 22.97500 | 34 ft | 0 kts | 45° |
| 2026-05-04 12:47 | 40.52366 | 22.97486 | 34 ft | 4 kts | 49° |
| 2026-05-04 12:48 | 40.52349 | 22.97459 | 34 ft | 4 kts | 58° |
| 2026-05-04 12:48 | 40.52337 | 22.97427 | 34 ft | 4 kts | 69° |
| 2026-05-04 12:48 | 40.52330 | 22.97394 | 34 ft | 4 kts | 84° |
| 2026-05-04 12:48 | 40.52331 | 22.97359 | 34 ft | 4 kts | 108° |
| 2026-05-04 12:49 | 40.52341 | 22.97335 | 34 ft | 1 kts | 135° |
| 2026-05-04 12:52 | 40.52337 | 22.97341 | 34 ft | 3 kts | 135° |
| 2026-05-04 12:52 | 40.52313 | 22.97372 | 34 ft | 7 kts | 135° |
| 2026-05-04 12:52 | 40.52270 | 22.97429 | 34 ft | 10 kts | 135° |
| 2026-05-04 12:52 | 40.52216 | 22.97498 | 34 ft | 12 kts | 135° |
| 2026-05-04 12:53 | 40.52164 | 22.97586 | 34 ft | 13 kts | 112° |
| 2026-05-04 12:53 | 40.52120 | 22.97695 | 34 ft | 14 kts | 137° |
| 2026-05-04 12:53 | 40.52045 | 22.97789 | 34 ft | 15 kts | 135° |
| 2026-05-04 12:53 | 40.51986 | 22.97909 | 34 ft | 17 kts | 98° |
| 2026-05-04 12:54 | 40.51961 | 22.98062 | 34 ft | 18 kts | 104° |
| 2026-05-04 12:54 | 40.51929 | 22.98224 | 34 ft | 19 kts | 104° |
| 2026-05-04 12:54 | 40.51896 | 22.98394 | 34 ft | 20 kts | 104° |
| 2026-05-04 12:54 | 40.51864 | 22.98572 | 34 ft | 21 kts | 103° |
| 2026-05-04 12:55 | 40.51810 | 22.98705 | 34 ft | 15 kts | 177° |
| 2026-05-04 12:55 | 40.51706 | 22.98679 | 34 ft | 16 kts | 212° |
| 2026-05-04 12:55 | 40.51694 | 22.98580 | 33 ft | 12 kts | 282° |
| 2026-05-04 12:55 | 40.51726 | 22.98405 | 34 ft | 43 kts | 284° |
| 2026-05-04 12:56 | 40.51862 | 22.97684 | 34 ft | 117 kts | 284° |
| 2026-05-04 12:56 | 40.52111 | 22.96372 | 40 ft | 173 kts | 283° |
| 2026-05-04 12:56 | 40.52401 | 22.94829 | 663 ft | 170 kts | 283° |
| 2026-05-04 12:56 | 40.52676 | 22.93323 | 1396 ft | 172 kts | 283° |
| 2026-05-04 12:57 | 40.53007 | 22.91703 | 1777 ft | 193 kts | 285° |
| 2026-05-04 12:57 | 40.53366 | 22.89932 | 2314 ft | 210 kts | 284° |
| 2026-05-04 12:57 | 40.53769 | 22.87966 | 2712 ft | 234 kts | 286° |
| 2026-05-04 12:57 | 40.54218 | 22.85818 | 3282 ft | 250 kts | 286° |
| 2026-05-04 12:58 | 40.54677 | 22.83587 | 4088 ft | 255 kts | 287° |
| 2026-05-04 12:58 | 40.55146 | 22.81321 | 4934 ft | 258 kts | 289° |
| 2026-05-04 12:58 | 40.55995 | 22.79258 | 5764 ft | 258 kts | 314° |
| 2026-05-04 12:58 | 40.57458 | 22.77922 | 6585 ft | 259 kts | 339° |
| 2026-05-04 12:59 | 40.59240 | 22.77578 | 7366 ft | 263 kts | 4° |
| 2026-05-04 12:59 | 40.60998 | 22.78288 | 8114 ft | 269 kts | 26° |
| 2026-05-04 12:59 | 40.62528 | 22.79748 | 8890 ft | 274 kts | 39° |
| 2026-05-04 12:59 | 40.63887 | 22.81537 | 9671 ft | 278 kts | 45° |
| 2026-05-04 13:00 | 40.65124 | 22.83526 | 10353 ft | 286 kts | 51° |
| 2026-05-04 13:00 | 40.66468 | 22.85543 | 10652 ft | 302 kts | 35° |
| 2026-05-04 13:00 | 40.68413 | 22.86737 | 10916 ft | 320 kts | 12° |
| 2026-05-04 13:00 | 40.70685 | 22.86776 | 11173 ft | 338 kts | 349° |
| 2026-05-04 13:01 | 40.72881 | 22.85545 | 11666 ft | 351 kts | 328° |
| 2026-05-04 13:01 | 40.74825 | 22.83548 | 12315 ft | 356 kts | 323° |
| 2026-05-04 13:01 | 40.76109 | 22.82183 | 12741 ft | 359 kts | 324° |
| 2026-05-04 13:01 | 40.78730 | 22.79478 | 13594 ft | 364 kts | 325° |
| 2026-05-04 13:02 | 40.80757 | 22.77433 | 14219 ft | 368 kts | 325° |
| 2026-05-04 13:02 | 40.82808 | 22.75375 | 14843 ft | 373 kts | 325° |
| 2026-05-04 13:02 | 40.84892 | 22.73313 | 15438 ft | 377 kts | 325° |
| 2026-05-04 13:02 | 40.86988 | 22.71209 | 16019 ft | 381 kts | 324° |
| 2026-05-04 13:03 | 40.88422 | 22.69773 | 16411 ft | 383 kts | 324° |
| 2026-05-04 13:03 | 40.90567 | 22.67646 | 16977 ft | 387 kts | 324° |
| 2026-05-04 13:03 | 40.92702 | 22.65524 | 17514 ft | 390 kts | 324° |
| 2026-05-04 13:03 | 40.94883 | 22.63352 | 18039 ft | 394 kts | 324° |
| 2026-05-04 13:04 | 40.97083 | 22.61150 | 18569 ft | 398 kts | 324° |
| 2026-05-04 13:04 | 40.99302 | 22.58920 | 19092 ft | 402 kts | 324° |
| 2026-05-04 13:04 | 41.01542 | 22.56684 | 19600 ft | 405 kts | 324° |
| 2026-05-04 13:04 | 41.03796 | 22.54417 | 20092 ft | 409 kts | 323° |
| 2026-05-04 13:05 | 41.06061 | 22.52114 | 20585 ft | 412 kts | 323° |
| 2026-05-04 13:05 | 41.08361 | 22.49797 | 21048 ft | 416 kts | 324° |
| 2026-05-04 13:05 | 41.10679 | 22.47475 | 21497 ft | 420 kts | 324° |
| 2026-05-04 13:05 | 41.13017 | 22.45132 | 21934 ft | 423 kts | 324° |
| 2026-05-04 13:06 | 41.15376 | 22.42769 | 22357 ft | 427 kts | 324° |
| 2026-05-04 13:06 | 41.17757 | 22.40382 | 22779 ft | 430 kts | 323° |
| 2026-05-04 13:06 | 41.20150 | 22.37972 | 23196 ft | 434 kts | 323° |
| 2026-05-04 13:06 | 41.22564 | 22.35547 | 23588 ft | 437 kts | 323° |
| 2026-05-04 13:07 | 41.25000 | 22.33098 | 23971 ft | 441 kts | 323° |
| 2026-05-04 13:07 | 41.27452 | 22.30630 | 24332 ft | 444 kts | 323° |
| 2026-05-04 13:07 | 41.29926 | 22.28137 | 24689 ft | 447 kts | 323° |
| 2026-05-04 13:07 | 41.32414 | 22.25630 | 25049 ft | 450 kts | 323° |
| 2026-05-04 13:08 | 41.34917 | 22.23103 | 25406 ft | 454 kts | 323° |
| 2026-05-04 13:08 | 41.37434 | 22.20543 | 25733 ft | 457 kts | 323° |
| 2026-05-04 13:08 | 41.39972 | 22.17969 | 26069 ft | 460 kts | 323° |
| 2026-05-04 13:08 | 41.42535 | 22.15381 | 26394 ft | 463 kts | 323° |
| 2026-05-04 13:09 | 41.45106 | 22.12767 | 26705 ft | 467 kts | 323° |
| 2026-05-04 13:09 | 41.47698 | 22.10135 | 27010 ft | 470 kts | 323° |
| 2026-05-04 13:09 | 41.50311 | 22.07479 | 27307 ft | 473 kts | 323° |
| 2026-05-04 13:09 | 41.52931 | 22.04795 | 27599 ft | 477 kts | 323° |
| 2026-05-04 13:10 | 41.55577 | 22.02101 | 27872 ft | 480 kts | 323° |
| 2026-05-04 13:10 | 41.58242 | 21.99381 | 28146 ft | 483 kts | 323° |
| 2026-05-04 13:10 | 41.60911 | 21.96658 | 28547 ft | 482 kts | 323° |
| 2026-05-04 13:10 | 41.63566 | 21.93935 | 28944 ft | 481 kts | 323° |
| 2026-05-04 13:11 | 41.66217 | 21.91205 | 29284 ft | 482 kts | 323° |
| 2026-05-04 13:11 | 41.68869 | 21.88463 | 29602 ft | 482 kts | 323° |
| 2026-05-04 13:11 | 41.71531 | 21.85713 | 29884 ft | 483 kts | 323° |
| 2026-05-04 13:11 | 41.74203 | 21.82972 | 30176 ft | 484 kts | 323° |
| 2026-05-04 13:12 | 41.76872 | 21.80227 | 30505 ft | 482 kts | 323° |
| 2026-05-04 13:12 | 41.79473 | 21.77511 | 30972 ft | 478 kts | 323° |
| 2026-05-04 13:12 | 41.82093 | 21.74798 | 31466 ft | 473 kts | 323° |
| 2026-05-04 13:12 | 41.84683 | 21.72118 | 31959 ft | 467 kts | 323° |
| 2026-05-04 13:13 | 41.87236 | 21.69462 | 32407 ft | 462 kts | 324° |
| 2026-05-04 13:13 | 41.89780 | 21.66865 | 32866 ft | 456 kts | 325° |
| 2026-05-04 13:13 | 41.92283 | 21.64317 | 33319 ft | 449 kts | 325° |
| 2026-05-04 13:13 | 41.94749 | 21.61781 | 33746 ft | 443 kts | 326° |
| 2026-05-04 13:14 | 41.97172 | 21.59278 | 34059 ft | 437 kts | 325° |
| 2026-05-04 13:14 | 42.01933 | 21.54339 | 34127 ft | 429 kts | 325° |
| 2026-05-04 13:15 | 42.06666 | 21.49400 | 34118 ft | 430 kts | 325° |
| 2026-05-04 13:15 | 42.11392 | 21.44480 | 34117 ft | 429 kts | 325° |
| 2026-05-04 13:16 | 42.16031 | 21.39411 | 34117 ft | 432 kts | 318° |
| 2026-05-04 13:16 | 42.20015 | 21.33333 | 34129 ft | 432 kts | 313° |
| 2026-05-04 13:17 | 42.23889 | 21.27139 | 34138 ft | 433 kts | 314° |
| 2026-05-04 13:17 | 42.27759 | 21.20959 | 34143 ft | 430 kts | 314° |
| 2026-05-04 13:18 | 42.31625 | 21.14803 | 34149 ft | 428 kts | 313° |
| 2026-05-04 13:18 | 42.35464 | 21.08660 | 34156 ft | 427 kts | 314° |
| 2026-05-04 13:19 | 42.39309 | 21.02542 | 34160 ft | 426 kts | 314° |
| 2026-05-04 13:19 | 42.43121 | 20.96416 | 34156 ft | 425 kts | 313° |
| 2026-05-04 13:20 | 42.46927 | 20.90309 | 34157 ft | 424 kts | 313° |
| 2026-05-04 13:20 | 42.50712 | 20.84216 | 34156 ft | 422 kts | 313° |
| 2026-05-04 13:21 | 42.54487 | 20.78117 | 34159 ft | 421 kts | 313° |
| 2026-05-04 13:21 | 42.58253 | 20.72040 | 34160 ft | 421 kts | 313° |
| 2026-05-04 13:22 | 42.61979 | 20.66000 | 34161 ft | 420 kts | 313° |
| 2026-05-04 13:22 | 42.65734 | 20.59917 | 34159 ft | 420 kts | 313° |
| 2026-05-04 13:23 | 42.69464 | 20.53836 | 34160 ft | 419 kts | 313° |
| 2026-05-04 13:23 | 42.73207 | 20.47775 | 34161 ft | 419 kts | 313° |
| 2026-05-04 13:24 | 42.76938 | 20.41673 | 34156 ft | 418 kts | 313° |
| 2026-05-04 13:24 | 42.80652 | 20.35607 | 34149 ft | 417 kts | 313° |
| 2026-05-04 13:25 | 42.86311 | 20.26588 | 34149 ft | 417 kts | 314° |
| 2026-05-04 13:25 | 42.90144 | 20.20640 | 34147 ft | 418 kts | 314° |
| 2026-05-04 13:26 | 42.93969 | 20.14674 | 34140 ft | 418 kts | 314° |
| 2026-05-04 13:26 | 42.97802 | 20.08708 | 34140 ft | 418 kts | 314° |
| 2026-05-04 13:27 | 43.01624 | 20.02723 | 34140 ft | 419 kts | 314° |
| 2026-05-04 13:27 | 43.05458 | 19.96728 | 34134 ft | 416 kts | 314° |
| 2026-05-04 13:28 | 43.09211 | 19.90847 | 34129 ft | 412 kts | 314° |
| 2026-05-04 13:28 | 43.12974 | 19.84923 | 34132 ft | 413 kts | 314° |
| 2026-05-04 13:29 | 43.16752 | 19.78976 | 34131 ft | 413 kts | 314° |
| 2026-05-04 13:29 | 43.20516 | 19.73025 | 34127 ft | 413 kts | 314° |
| 2026-05-04 13:30 | 43.24281 | 19.67059 | 34130 ft | 414 kts | 314° |
| 2026-05-04 13:30 | 43.28050 | 19.61068 | 34127 ft | 415 kts | 314° |
| 2026-05-04 13:31 | 43.31822 | 19.55072 | 34124 ft | 415 kts | 314° |
| 2026-05-04 13:31 | 43.35591 | 19.49078 | 34122 ft | 415 kts | 314° |
| 2026-05-04 13:32 | 43.39353 | 19.43062 | 34121 ft | 414 kts | 314° |
| 2026-05-04 13:32 | 43.43118 | 19.37063 | 34121 ft | 414 kts | 314° |
| 2026-05-04 13:33 | 43.46882 | 19.31038 | 34119 ft | 415 kts | 314° |
| 2026-05-04 13:33 | 43.50631 | 19.25002 | 34112 ft | 415 kts | 313° |
| 2026-05-04 13:34 | 43.54387 | 19.18969 | 34112 ft | 414 kts | 313° |
| 2026-05-04 13:34 | 43.58104 | 19.12964 | 34111 ft | 414 kts | 313° |
| 2026-05-04 13:35 | 43.63725 | 19.03901 | 34099 ft | 414 kts | 313° |
| 2026-05-04 13:36 | 43.67460 | 18.97841 | 34101 ft | 414 kts | 313° |
| 2026-05-04 13:36 | 43.71193 | 18.91769 | 34101 ft | 414 kts | 313° |
| 2026-05-04 13:37 | 43.74925 | 18.85683 | 34095 ft | 415 kts | 313° |
| 2026-05-04 13:37 | 43.78655 | 18.79603 | 34087 ft | 414 kts | 313° |
| 2026-05-04 13:38 | 43.82374 | 18.73499 | 34090 ft | 414 kts | 313° |
| 2026-05-04 13:38 | 43.86101 | 18.67413 | 34079 ft | 414 kts | 313° |
| 2026-05-04 13:39 | 43.89802 | 18.61357 | 34078 ft | 414 kts | 312° |
| 2026-05-04 13:39 | 43.93521 | 18.55238 | 34082 ft | 415 kts | 312° |
| 2026-05-04 13:40 | 43.97242 | 18.49113 | 34077 ft | 415 kts | 312° |
| 2026-05-04 13:40 | 44.00950 | 18.42969 | 34081 ft | 415 kts | 312° |
| 2026-05-04 13:41 | 44.04674 | 18.36812 | 34079 ft | 416 kts | 312° |
| 2026-05-04 13:41 | 44.08380 | 18.30621 | 34080 ft | 416 kts | 311° |
| 2026-05-04 13:42 | 44.13913 | 18.21372 | 34084 ft | 416 kts | 312° |
| 2026-05-04 13:42 | 44.17606 | 18.15174 | 34083 ft | 416 kts | 311° |
| 2026-05-04 13:43 | 44.21311 | 18.08983 | 34083 ft | 416 kts | 312° |
| 2026-05-04 13:43 | 44.25009 | 18.02791 | 34087 ft | 415 kts | 312° |
| 2026-05-04 13:44 | 44.28705 | 17.96591 | 34075 ft | 416 kts | 311° |
| 2026-05-04 13:44 | 44.32405 | 17.90370 | 34079 ft | 416 kts | 312° |
| 2026-05-04 13:45 | 44.36132 | 17.84170 | 34079 ft | 416 kts | 311° |
| 2026-05-04 13:45 | 44.39829 | 17.77942 | 34080 ft | 416 kts | 311° |
| 2026-05-04 13:46 | 44.43515 | 17.71697 | 34083 ft | 416 kts | 311° |
| 2026-05-04 13:46 | 44.47209 | 17.65437 | 34072 ft | 417 kts | 311° |
| 2026-05-04 13:47 | 44.50890 | 17.59148 | 34074 ft | 417 kts | 311° |
| 2026-05-04 13:47 | 44.54576 | 17.52861 | 34074 ft | 418 kts | 311° |
| 2026-05-04 13:48 | 44.57642 | 17.47626 | 34067 ft | 418 kts | 311° |
| 2026-05-04 13:48 | 44.61934 | 17.40290 | 34061 ft | 418 kts | 311° |
| 2026-05-04 13:49 | 44.65624 | 17.33970 | 34061 ft | 419 kts | 311° |
| 2026-05-04 13:49 | 44.68690 | 17.28701 | 34055 ft | 418 kts | 310° |
| 2026-05-04 13:50 | 44.72364 | 17.22362 | 34061 ft | 419 kts | 310° |
| 2026-05-04 13:50 | 44.76031 | 17.15988 | 34061 ft | 419 kts | 310° |
| 2026-05-04 13:51 | 44.79718 | 17.09638 | 34062 ft | 419 kts | 310° |
| 2026-05-04 13:51 | 44.83405 | 17.03275 | 34060 ft | 419 kts | 310° |
| 2026-05-04 13:52 | 44.88913 | 16.93668 | 34059 ft | 420 kts | 310° |
| 2026-05-04 13:53 | 44.92580 | 16.87266 | 34059 ft | 420 kts | 310° |
| 2026-05-04 13:53 | 44.96258 | 16.80850 | 34059 ft | 420 kts | 310° |
| 2026-05-04 13:54 | 45.01751 | 16.71189 | 34060 ft | 420 kts | 310° |
| 2026-05-04 13:55 | 45.07229 | 16.61562 | 34060 ft | 421 kts | 310° |
| 2026-05-04 13:55 | 45.12731 | 16.51871 | 34058 ft | 421 kts | 309° |
| 2026-05-04 13:56 | 45.16388 | 16.45393 | 34059 ft | 422 kts | 309° |
| 2026-05-04 13:57 | 45.21878 | 16.35641 | 34057 ft | 422 kts | 309° |
| 2026-05-04 13:58 | 45.29205 | 16.22582 | 34057 ft | 423 kts | 309° |
| 2026-05-04 13:58 | 45.34699 | 16.12755 | 34061 ft | 423 kts | 309° |
| 2026-05-04 13:59 | 45.38359 | 16.06189 | 34059 ft | 424 kts | 309° |
| 2026-05-04 14:00 | 45.43843 | 15.96288 | 34053 ft | 425 kts | 309° |
| 2026-05-04 14:00 | 45.49323 | 15.86414 | 34050 ft | 426 kts | 309° |
| 2026-05-04 14:01 | 45.52986 | 15.79778 | 34050 ft | 426 kts | 308° |
| 2026-05-04 14:02 | 45.58476 | 15.69809 | 34050 ft | 426 kts | 308° |
| 2026-05-04 14:02 | 45.62127 | 15.63152 | 34047 ft | 426 kts | 308° |
| 2026-05-04 14:03 | 45.65777 | 15.56481 | 34038 ft | 426 kts | 308° |
| 2026-05-04 14:03 | 45.69423 | 15.49795 | 34035 ft | 426 kts | 308° |
| 2026-05-04 14:04 | 45.74890 | 15.39773 | 34028 ft | 426 kts | 308° |
| 2026-05-04 14:04 | 45.78531 | 15.33077 | 34028 ft | 426 kts | 308° |
| 2026-05-04 14:05 | 45.84081 | 15.23179 | 34035 ft | 424 kts | 309° |
| 2026-05-04 14:06 | 45.87736 | 15.16603 | 34045 ft | 425 kts | 309° |
| 2026-05-04 14:06 | 45.91427 | 15.09985 | 34037 ft | 424 kts | 308° |
| 2026-05-04 14:07 | 45.95104 | 15.03342 | 34050 ft | 424 kts | 308° |
| 2026-05-04 14:07 | 45.98774 | 14.96691 | 34052 ft | 424 kts | 308° |
| 2026-05-04 14:08 | 46.02449 | 14.90034 | 34059 ft | 425 kts | 308° |
| 2026-05-04 14:08 | 46.06134 | 14.83345 | 34063 ft | 426 kts | 308° |
| 2026-05-04 14:09 | 46.11653 | 14.73286 | 34072 ft | 427 kts | 308° |
| 2026-05-04 14:10 | 46.17164 | 14.63200 | 34060 ft | 427 kts | 308° |
| 2026-05-04 14:10 | 46.20819 | 14.56501 | 34053 ft | 427 kts | 307° |
| 2026-05-04 14:11 | 46.24485 | 14.49763 | 33643 ft | 426 kts | 307° |
| 2026-05-04 14:11 | 46.28134 | 14.43013 | 33268 ft | 428 kts | 307° |
| 2026-05-04 14:11 | 46.29969 | 14.39621 | 33476 ft | 428 kts | 307° |
| 2026-05-04 14:12 | 46.31798 | 14.36229 | 33731 ft | 427 kts | 307° |
| 2026-05-04 14:12 | 46.33623 | 14.32834 | 33977 ft | 427 kts | 307° |
| 2026-05-04 14:13 | 46.39095 | 14.22660 | 34064 ft | 427 kts | 307° |
| 2026-05-04 14:13 | 46.42759 | 14.15890 | 34047 ft | 427 kts | 307° |
| 2026-05-04 14:14 | 46.46406 | 14.09089 | 34029 ft | 427 kts | 307° |
| 2026-05-04 14:14 | 46.51862 | 13.98858 | 34026 ft | 427 kts | 307° |
| 2026-05-04 14:15 | 46.59137 | 13.85189 | 34033 ft | 428 kts | 307° |
| 2026-05-04 14:16 | 46.64561 | 13.74945 | 34028 ft | 428 kts | 306° |
| 2026-05-04 14:17 | 46.70017 | 13.64642 | 34022 ft | 428 kts | 306° |
| 2026-05-04 14:18 | 46.75428 | 13.54323 | 34024 ft | 427 kts | 306° |